createdAt,value
2023-03-21T00:00:21.744Z,81.65
2023-03-21T00:02:48.317Z,81.90
2023-03-21T00:05:16.050Z,81.63
2023-03-21T00:07:43.161Z,82.38
2023-03-21T00:10:16.490Z,82.67
2023-03-21T00:12:46.236Z,83.93
2023-03-21T00:15:12.963Z,84.75
2023-03-21T00:17:39.883Z,85.16
2023-03-21T00:20:12.067Z,86.45
2023-03-21T00:22:38.479Z,86.50
2023-03-21T00:25:05.326Z,87.13
2023-03-21T00:27:53.314Z,86.63
2023-03-21T00:30:20.531Z,86.48
2023-03-21T00:32:55.351Z,86.12
2023-03-21T00:35:53.388Z,85.97
2023-03-21T00:38:09.541Z,85.93
2023-03-21T00:40:43.649Z,86.50
2023-03-21T00:43:17.527Z,85.95
2023-03-21T00:45:44.820Z,85.94
2023-03-21T00:48:11.332Z,85.75
2023-03-21T00:50:39.325Z,85.72
2023-03-21T00:53:06.903Z,85.81
2023-03-21T00:55:33.741Z,85.69
2023-03-21T00:58:02.396Z,85.30
2023-03-21T01:00:29.918Z,85.81
2023-03-21T01:03:14.125Z,85.60
2023-03-21T01:06:06.115Z,85.46
2023-03-21T01:08:51.256Z,85.28
2023-03-21T01:11:20.969Z,85.61
2023-03-21T01:13:54.875Z,85.29
2023-03-21T01:16:27.303Z,85.43
2023-03-21T01:18:53.874Z,85.29
2023-03-21T01:21:20.410Z,85.31
2023-03-21T01:23:47.364Z,85.33
2023-03-21T01:26:15.380Z,85.57
2023-03-21T01:28:43.367Z,85.53
2023-03-21T01:31:12.919Z,85.60
2023-03-21T01:33:39.619Z,85.42
2023-03-21T01:36:13.036Z,85.93
2023-03-21T01:38:41.612Z,86.42
2023-03-21T01:41:19.548Z,86.78
2023-03-21T01:43:47.431Z,87.04
2023-03-21T01:46:37.097Z,87.16
2023-03-21T01:49:13.031Z,87.01
2023-03-21T01:51:55.022Z,86.91
2023-03-21T01:54:28.507Z,86.89
2023-03-21T01:56:57.900Z,87.33
2023-03-21T01:59:54.324Z,87.31
2023-03-21T02:02:25.597Z,86.89
2023-03-21T02:04:55.935Z,86.89
2023-03-21T02:07:29.585Z,86.76
2023-03-21T02:09:57.956Z,86.81
2023-03-21T02:12:26.171Z,86.67
2023-03-21T02:14:54.737Z,86.79
2023-03-21T02:17:36.246Z,87.20
2023-03-21T02:20:38.280Z,87.15
2023-03-21T02:23:29.925Z,87.15
2023-03-21T02:26:08.450Z,87.09
2023-03-21T02:28:58.416Z,87.05
2023-03-21T02:31:28.658Z,86.91
2023-03-21T02:34:07.351Z,87.36
2023-03-21T02:36:50.276Z,87.17
2023-03-21T02:39:23.900Z,87.35
2023-03-21T02:41:56.606Z,87.32
2023-03-21T02:44:25.286Z,86.96
2023-03-21T02:47:06.445Z,87.16
2023-03-21T02:49:42.845Z,87.04
2023-03-21T02:52:22.900Z,86.98
2023-03-21T02:54:56.773Z,87.03
2023-03-21T02:57:27.037Z,87.25
2023-03-21T03:00:02.357Z,87.05
2023-03-21T03:02:31.834Z,87.00
2023-03-21T03:04:58.909Z,86.99
2023-03-21T03:07:41.552Z,87.42
2023-03-21T03:10:33.608Z,87.18
2023-03-21T03:13:12.130Z,87.18
2023-03-21T03:16:07.675Z,87.31
2023-03-21T03:18:55.742Z,87.78
2023-03-21T03:21:42.176Z,87.91
2023-03-21T03:24:22.727Z,87.87
2023-03-21T03:27:07.980Z,87.63
2023-03-21T03:29:37.539Z,88.00
2023-03-21T03:32:12.539Z,88.21
2023-03-21T03:34:44.326Z,88.19
2023-03-21T03:37:16.511Z,87.97
2023-03-21T03:39:51.427Z,88.55
2023-03-21T03:42:28.519Z,88.48
2023-03-21T03:44:56.076Z,88.49
2023-03-21T03:47:55.903Z,88.51
2023-03-21T03:50:44.595Z,88.25
2023-03-21T03:53:18.566Z,87.95
2023-03-21T03:55:46.242Z,88.15
2023-03-21T03:58:22.109Z,88.27
2023-03-21T04:00:50.442Z,88.34
2023-03-21T04:03:16.971Z,88.69
2023-03-21T04:05:46.315Z,88.41
2023-03-21T04:08:14.304Z,88.49
2023-03-21T04:10:42.495Z,88.41
2023-03-21T04:13:09.897Z,88.42
2023-03-21T04:15:36.761Z,88.36
2023-03-21T04:18:03.793Z,88.31
2023-03-21T04:20:36.994Z,88.34
2023-03-21T04:23:09.711Z,88.34
2023-03-21T04:25:42.292Z,88.05
2023-03-21T04:28:14.180Z,87.74
2023-03-21T04:30:43.425Z,88.77
2023-03-21T04:33:15.777Z,89.12
2023-03-21T04:35:42.601Z,89.33
2023-03-21T04:38:09.079Z,89.49
2023-03-21T04:40:35.836Z,89.40
2023-03-21T04:43:02.529Z,89.65
2023-03-21T04:45:28.999Z,89.49
2023-03-21T04:47:56.740Z,89.62
2023-03-21T04:50:23.278Z,89.51
2023-03-21T04:52:49.724Z,89.25
2023-03-21T04:55:16.282Z,89.25
2023-03-21T04:57:42.668Z,89.66
2023-03-21T05:00:16.000Z,89.16
2023-03-21T05:02:42.475Z,89.01
2023-03-21T05:05:11.403Z,88.99
2023-03-21T05:07:42.199Z,88.71
2023-03-21T05:10:11.803Z,88.54
2023-03-21T05:12:38.614Z,88.69
2023-03-21T05:15:05.931Z,89.67
2023-03-21T05:17:32.369Z,90.24
2023-03-21T05:19:58.844Z,91.27
2023-03-21T05:22:26.816Z,91.33
2023-03-21T05:24:55.349Z,91.87
2023-03-21T05:27:35.150Z,91.23
2023-03-21T05:30:11.092Z,91.22
2023-03-21T05:32:37.565Z,91.13
2023-03-21T05:35:04.208Z,91.01
2023-03-21T05:37:30.729Z,91.05
2023-03-21T05:39:57.106Z,90.57
2023-03-21T05:42:23.765Z,90.38
2023-03-21T05:44:50.567Z,90.32
2023-03-21T05:47:18.360Z,89.74
2023-03-21T05:49:45.941Z,89.69
2023-03-21T05:52:12.577Z,89.38
2023-03-21T05:54:38.964Z,89.29
2023-03-21T05:57:05.809Z,89.13
2023-03-21T05:59:32.577Z,89.01
2023-03-21T06:01:59.053Z,88.51
2023-03-21T06:04:25.701Z,88.40
2023-03-21T06:06:53.475Z,88.91
2023-03-21T06:09:22.182Z,89.18
2023-03-21T06:11:51.732Z,88.28
2023-03-21T06:14:19.411Z,87.82
2023-03-21T06:16:46.362Z,88.17
2023-03-21T06:19:12.764Z,88.65
2023-03-21T06:21:39.441Z,88.74
2023-03-21T06:24:06.171Z,88.42
2023-03-21T06:26:32.887Z,88.47
2023-03-21T06:28:59.383Z,88.36
2023-03-21T06:31:26.886Z,88.69
2023-03-21T06:33:53.553Z,88.77
2023-03-21T06:36:20.233Z,88.67
2023-03-21T06:38:46.943Z,88.64
2023-03-21T06:41:13.759Z,88.89
2023-03-21T06:43:40.167Z,88.48
2023-03-21T06:46:06.921Z,88.58
2023-03-21T06:48:33.340Z,89.08
2023-03-21T06:50:59.746Z,88.72
2023-03-21T06:53:29.958Z,88.48
2023-03-21T06:55:56.832Z,88.41
2023-03-21T06:58:23.722Z,86.54
2023-03-21T07:00:50.568Z,86.29
2023-03-21T07:03:17.025Z,86.07
2023-03-21T07:05:43.481Z,85.99
2023-03-21T07:08:12.307Z,85.25
2023-03-21T07:10:41.193Z,85.45
2023-03-21T07:13:07.851Z,85.52
2023-03-21T07:15:38.133Z,85.38
2023-03-21T07:18:05.792Z,84.66
2023-03-21T07:20:32.232Z,84.16
2023-03-21T07:22:58.971Z,84.14
2023-03-21T07:25:25.456Z,83.46
2023-03-21T07:27:52.275Z,82.50
2023-03-21T07:30:19.174Z,82.85
2023-03-21T07:32:45.753Z,82.45
2023-03-21T07:35:13.697Z,82.45
2023-03-21T07:37:40.993Z,82.39
2023-03-21T07:40:12.366Z,81.56
2023-03-21T07:42:42.735Z,79.13
2023-03-21T07:45:10.898Z,79.93
2023-03-21T07:47:37.400Z,79.96
2023-03-21T07:50:04.557Z,80.18
2023-03-21T07:52:31.466Z,78.01
2023-03-21T07:54:57.938Z,78.51
2023-03-21T07:57:24.389Z,82.45
2023-03-21T07:59:50.839Z,83.73
2023-03-21T08:02:18.432Z,84.30
2023-03-21T08:04:45.133Z,84.04
2023-03-21T08:07:11.757Z,84.13
2023-03-21T08:09:38.244Z,84.57
2023-03-21T08:12:06.075Z,84.89
2023-03-21T08:14:33.147Z,84.00
2023-03-21T08:17:00.068Z,82.47
2023-03-21T08:19:27.070Z,81.80
2023-03-21T08:21:53.654Z,81.82
2023-03-21T08:24:20.248Z,79.87
2023-03-21T08:26:46.817Z,79.17
2023-03-21T08:29:13.585Z,79.27
2023-03-21T08:31:40.960Z,78.69
2023-03-21T08:34:08.086Z,80.51
2023-03-21T08:36:36.890Z,78.53
2023-03-21T08:39:05.563Z,78.51
2023-03-21T08:41:37.122Z,78.24
2023-03-21T08:44:05.752Z,77.71
2023-03-21T08:46:33.138Z,76.64
2023-03-21T08:48:59.598Z,76.87
2023-03-21T08:51:26.271Z,72.44
2023-03-21T08:53:52.775Z,72.97
2023-03-21T08:56:19.204Z,72.18
2023-03-21T08:58:45.584Z,73.05
2023-03-21T09:01:15.470Z,73.55
2023-03-21T09:03:42.769Z,72.04
2023-03-21T09:06:12.139Z,72.15
2023-03-21T09:08:38.723Z,72.54
2023-03-21T09:11:05.550Z,71.32
2023-03-21T09:13:33.026Z,69.87
2023-03-21T09:16:01.397Z,68.35
2023-03-21T09:18:48.930Z,66.75
2023-03-21T09:21:18.252Z,65.71
2023-03-21T09:23:44.923Z,65.53
2023-03-21T09:26:12.491Z,62.37
2023-03-21T09:28:40.480Z,62.47
2023-03-21T09:31:11.286Z,61.85
2023-03-21T09:33:40.352Z,62.33
2023-03-21T09:36:13.385Z,62.00
2023-03-21T09:38:46.872Z,58.77
2023-03-21T09:41:47.622Z,58.99
2023-03-21T09:44:54.037Z,60.19
2023-03-21T09:47:29.472Z,61.52
2023-03-21T09:50:12.990Z,59.42
2023-03-21T09:52:54.705Z,60.04
2023-03-21T09:55:26.850Z,61.43
2023-03-21T09:58:22.356Z,61.79
2023-03-21T10:00:53.997Z,61.18
2023-03-21T10:03:24.426Z,62.03
2023-03-21T10:05:53.021Z,60.50
2023-03-21T10:08:27.707Z,60.26
2023-03-21T10:11:02.209Z,60.71
2023-03-21T10:13:35.883Z,60.57
2023-03-21T10:16:14.452Z,59.59
2023-03-21T10:18:42.575Z,60.30
2023-03-21T10:21:37.286Z,59.04
2023-03-21T10:24:03.051Z,58.97
2023-03-21T10:26:30.661Z,61.17
2023-03-21T10:29:00.570Z,60.03
2023-03-21T10:31:30.437Z,57.91
2023-03-21T10:34:02.521Z,60.13
2023-03-21T10:36:32.852Z,59.99
2023-03-21T10:39:04.910Z,60.56
2023-03-21T10:41:32.363Z,58.87
2023-03-21T10:44:11.816Z,59.15
2023-03-21T10:46:38.571Z,59.83
2023-03-21T10:49:07.616Z,59.10
2023-03-21T10:51:38.214Z,58.79
2023-03-21T10:54:08.357Z,60.59
2023-03-21T10:56:44.657Z,60.01
2023-03-21T10:59:20.403Z,59.95
2023-03-21T11:01:51.862Z,59.64
2023-03-21T11:04:22.508Z,60.44
2023-03-21T11:06:57.838Z,59.86
2023-03-21T11:09:27.822Z,59.43
2023-03-21T11:11:56.102Z,58.50
2023-03-21T11:14:33.052Z,56.66
2023-03-21T11:16:59.755Z,57.48
2023-03-21T11:19:32.237Z,56.54
2023-03-21T11:22:05.439Z,57.12
2023-03-21T11:24:33.266Z,59.33
2023-03-21T11:27:01.874Z,59.79
2023-03-21T11:29:37.192Z,59.37
2023-03-21T11:32:21.283Z,60.41
2023-03-21T11:35:05.898Z,61.36
2023-03-21T11:37:51.128Z,60.30
2023-03-21T11:40:23.783Z,60.47
2023-03-21T11:42:53.374Z,61.11
2023-03-21T11:45:27.558Z,61.47
2023-03-21T11:47:56.278Z,60.71
2023-03-21T11:50:36.293Z,60.43
2023-03-21T11:53:22.612Z,59.64
2023-03-21T11:56:02.197Z,59.82
2023-03-21T11:59:01.525Z,59.77
2023-03-21T12:01:53.152Z,59.52
2023-03-21T12:04:34.904Z,59.01
2023-03-21T12:07:22.518Z,59.04
2023-03-21T12:10:09.392Z,61.14
2023-03-21T12:12:52.511Z,60.27
2023-03-21T12:15:27.692Z,60.28
2023-03-21T12:17:57.073Z,59.86
2023-03-21T12:20:31.337Z,59.84
2023-03-21T12:23:22.949Z,59.89
2023-03-21T12:26:04.068Z,59.01
2023-03-21T12:28:42.906Z,59.89
2023-03-21T12:31:12.427Z,59.77
2023-03-21T12:33:55.756Z,59.10
2023-03-21T12:36:44.045Z,59.74
2023-03-21T12:39:28.397Z,58.97
2023-03-21T12:42:21.509Z,59.00
2023-03-21T12:44:55.647Z,59.16
2023-03-21T12:47:28.344Z,58.30
2023-03-21T12:50:01.593Z,58.62
2023-03-21T12:52:36.912Z,58.99
2023-03-21T12:55:19.037Z,59.15
2023-03-21T12:58:03.583Z,59.79
2023-03-21T13:00:45.504Z,59.11
2023-03-21T13:03:19.615Z,59.88
2023-03-21T13:05:58.759Z,58.32
2023-03-21T13:08:30.340Z,58.55
2023-03-21T13:11:00.196Z,58.87
2023-03-21T13:13:40.208Z,58.79
2023-03-21T13:16:20.846Z,58.47
2023-03-21T13:19:05.763Z,59.08
2023-03-21T13:21:34.840Z,57.88
2023-03-21T13:24:01.497Z,58.31
2023-03-21T13:26:38.106Z,58.55
2023-03-21T13:29:32.697Z,58.26
2023-03-21T13:32:15.366Z,58.28
2023-03-21T13:34:43.393Z,57.74
2023-03-21T13:37:18.861Z,58.48
2023-03-21T13:39:47.254Z,59.32
2023-03-21T13:42:29.131Z,58.79
2023-03-21T13:44:59.372Z,59.25
2023-03-21T13:47:40.564Z,58.76
2023-03-21T13:50:29.364Z,57.57
2023-03-21T13:53:01.808Z,57.76
2023-03-21T13:55:41.678Z,57.52
2023-03-21T13:58:43.954Z,57.23
2023-03-21T14:01:28.552Z,58.17
2023-03-21T14:04:11.180Z,58.61
2023-03-21T14:06:47.490Z,56.82
2023-03-21T14:09:23.293Z,58.69
2023-03-21T14:11:54.647Z,57.00
2023-03-21T14:14:26.486Z,57.13
2023-03-21T14:16:53.981Z,58.08
2023-03-21T14:19:20.921Z,57.81
2023-03-21T14:21:51.531Z,58.27
2023-03-21T14:24:19.147Z,57.59
2023-03-21T14:26:54.797Z,57.17
2023-03-21T14:29:27.289Z,56.78
2023-03-21T14:31:56.378Z,57.53
2023-03-21T14:34:26.421Z,57.63
2023-03-21T14:36:58.270Z,57.04
2023-03-21T14:39:32.288Z,57.34
2023-03-21T14:42:05.787Z,56.57
2023-03-21T14:44:52.895Z,56.61
2023-03-21T14:47:23.180Z,56.66
2023-03-21T14:49:50.581Z,57.10
2023-03-21T14:52:25.429Z,57.18
2023-03-21T14:54:53.696Z,57.01
2023-03-21T14:57:24.976Z,57.20
2023-03-21T14:59:54.838Z,56.21
2023-03-21T15:02:38.631Z,55.95
2023-03-21T15:05:29.202Z,55.61
2023-03-21T15:08:07.713Z,56.27
2023-03-21T15:10:34.159Z,56.93
2023-03-21T15:13:12.857Z,57.01
2023-03-21T15:15:40.353Z,57.46
2023-03-21T15:18:08.437Z,56.85
2023-03-21T15:20:37.677Z,56.63
2023-03-21T15:23:12.178Z,56.30
2023-03-21T15:25:39.414Z,57.07
2023-03-21T15:28:06.697Z,57.02
2023-03-21T15:30:34.254Z,57.37
2023-03-21T15:33:09.634Z,56.66
2023-03-21T15:35:40.251Z,56.96
2023-03-21T15:38:07.355Z,56.72
2023-03-21T15:40:34.840Z,56.35
2023-03-21T15:43:07.414Z,56.28
2023-03-21T15:45:34.012Z,56.59
2023-03-21T15:48:09.103Z,57.60
2023-03-21T15:50:38.876Z,56.50
2023-03-21T15:53:17.177Z,56.72
2023-03-21T15:55:48.211Z,56.35
2023-03-21T15:58:19.550Z,56.27
2023-03-21T16:00:55.452Z,56.08
2023-03-21T16:03:27.272Z,56.57
2023-03-21T16:06:27.182Z,56.05
2023-03-21T16:09:04.963Z,56.04
2023-03-21T16:11:43.130Z,56.35
2023-03-21T16:14:09.991Z,56.63
2023-03-21T16:16:37.860Z,56.64
2023-03-21T16:19:04.454Z,56.37
2023-03-21T16:21:33.685Z,56.46
2023-03-21T16:24:01.655Z,56.86
2023-03-21T16:26:31.986Z,56.81
2023-03-21T16:28:58.654Z,57.15
2023-03-21T16:31:28.098Z,57.20
2023-03-21T16:33:54.570Z,57.58
2023-03-21T16:36:24.350Z,57.22
2023-03-21T16:38:52.702Z,57.42
2023-03-21T16:41:20.786Z,57.57
2023-03-21T16:43:47.595Z,57.93
2023-03-21T16:46:22.618Z,57.69
2023-03-21T16:48:52.174Z,57.93
2023-03-21T16:51:25.904Z,57.94
2023-03-21T16:53:53.476Z,58.54
2023-03-21T16:56:26.876Z,58.48
2023-03-21T16:58:57.290Z,58.45
2023-03-21T17:01:29.881Z,58.99
2023-03-21T17:03:57.872Z,58.97
2023-03-21T17:06:27.284Z,59.01
2023-03-21T17:08:55.726Z,59.01
2023-03-21T17:11:24.136Z,59.22
2023-03-21T17:13:52.740Z,59.72
2023-03-21T17:16:26.837Z,59.71
2023-03-21T17:18:54.445Z,59.73
2023-03-21T17:21:26.347Z,59.51
2023-03-21T17:23:53.204Z,59.71
2023-03-21T17:26:22.350Z,59.77
2023-03-21T17:28:49.172Z,59.90
2023-03-21T17:31:17.704Z,60.06
2023-03-21T17:33:44.812Z,60.21
2023-03-21T17:36:20.216Z,60.04
2023-03-21T17:38:46.903Z,60.23
2023-03-21T17:41:18.433Z,60.41
2023-03-21T17:43:45.459Z,60.26
2023-03-21T17:46:17.534Z,60.29
2023-03-21T17:48:45.485Z,60.45
2023-03-21T17:51:14.742Z,60.70
2023-03-21T17:53:42.475Z,60.62
2023-03-21T17:56:14.366Z,60.95
2023-03-21T17:58:40.915Z,60.87
2023-03-21T18:01:07.447Z,60.89
2023-03-21T18:03:33.889Z,61.61
2023-03-21T18:06:00.355Z,60.93
2023-03-21T18:08:27.116Z,61.42
2023-03-21T18:10:53.651Z,60.96
2023-03-21T18:13:20.080Z,61.61
2023-03-21T18:15:48.377Z,61.39
2023-03-21T18:18:14.896Z,61.54
2023-03-21T18:20:58.490Z,61.24
2023-03-21T18:23:25.283Z,61.59
2023-03-21T18:25:52.544Z,61.72
2023-03-21T18:28:21.397Z,61.81
2023-03-21T18:33:37.699Z,62.12
2023-03-21T18:36:07.553Z,62.19
2023-03-21T18:38:36.466Z,62.22
2023-03-21T18:41:03.551Z,62.47
2023-03-21T18:46:17.523Z,62.55
2023-03-21T18:48:44.008Z,62.47
2023-03-21T18:51:10.578Z,62.65
2023-03-21T18:53:37.256Z,62.93
2023-03-21T18:56:09.516Z,63.04
2023-03-21T18:58:36.643Z,63.05
2023-03-21T19:01:05.040Z,62.85
2023-03-21T19:03:36.630Z,63.23
2023-03-21T19:06:04.569Z,63.07
2023-03-21T19:08:31.251Z,63.51
2023-03-21T19:11:00.218Z,63.70
2023-03-21T19:13:29.823Z,63.75
2023-03-21T19:15:56.386Z,63.85
2023-03-21T19:18:53.532Z,63.77
2023-03-21T19:21:09.494Z,64.13
2023-03-21T19:23:59.325Z,63.97
2023-03-21T19:26:22.659Z,64.42
2023-03-21T19:28:49.042Z,64.39
2023-03-21T19:31:16.295Z,64.21
2023-03-21T19:33:42.952Z,64.42
2023-03-21T19:36:18.372Z,64.51
2023-03-21T19:38:47.530Z,64.30
2023-03-21T19:41:14.130Z,64.59
2023-03-21T19:43:52.905Z,64.54
2023-03-21T19:46:24.400Z,64.47
2023-03-21T19:48:50.843Z,64.27
2023-03-21T19:51:33.159Z,64.01
2023-03-21T19:54:03.307Z,64.18
2023-03-21T19:56:31.654Z,64.32
2023-03-21T19:58:59.034Z,64.02
2023-03-21T20:01:26.232Z,64.38
2023-03-21T20:03:53.212Z,64.60
2023-03-21T20:06:22.199Z,64.49
2023-03-21T20:11:35.154Z,64.77
2023-03-21T20:14:03.231Z,65.02
2023-03-21T20:16:35.022Z,65.63
2023-03-21T20:19:04.587Z,66.07
2023-03-21T20:21:36.617Z,65.28
2023-03-21T20:24:12.846Z,66.06
2023-03-21T20:26:39.446Z,65.88
2023-03-21T20:29:48.487Z,65.59
2023-03-21T20:31:53.123Z,65.93
2023-03-21T20:34:19.558Z,66.36
2023-03-21T20:36:46.137Z,66.46
2023-03-21T20:39:12.613Z,66.41
2023-03-21T20:41:39.438Z,66.36
2023-03-21T20:44:41.785Z,66.56
2023-03-21T20:46:53.136Z,66.25
2023-03-21T20:49:23.152Z,66.61
2023-03-21T20:54:37.170Z,66.61
2023-03-21T20:57:04.839Z,66.65
2023-03-21T20:59:31.651Z,66.78
2023-03-21T21:01:58.433Z,66.97
2023-03-21T21:04:52.944Z,67.13
2023-03-21T21:07:20.335Z,67.05
2023-03-21T21:09:47.507Z,67.22
2023-03-21T21:12:15.430Z,67.53
2023-03-21T21:14:42.705Z,67.45
2023-03-21T21:17:54.080Z,67.46
2023-03-21T21:19:56.147Z,67.58
2023-03-21T21:22:22.545Z,68.07
2023-03-21T21:24:48.916Z,68.02
2023-03-21T21:27:16.695Z,68.13
2023-03-21T21:29:43.357Z,68.59
2023-03-21T21:32:09.967Z,68.63
2023-03-21T21:34:37.079Z,68.79
2023-03-21T21:37:03.589Z,68.98
2023-03-21T21:39:35.741Z,68.95
2023-03-21T21:42:02.649Z,68.90
2023-03-21T21:44:29.298Z,68.89
2023-03-21T21:46:57.553Z,69.06
2023-03-21T21:49:24.509Z,69.07
2023-03-21T21:51:51.234Z,69.02
2023-03-21T21:54:18.244Z,69.01
2023-03-21T21:56:48.295Z,68.51
2023-03-21T21:59:18.382Z,68.57
2023-03-21T22:01:46.706Z,68.41
2023-03-21T22:04:14.375Z,68.49
2023-03-21T22:06:42.210Z,68.00
2023-03-21T22:09:08.827Z,68.30
2023-03-21T22:11:35.272Z,68.42
2023-03-21T22:14:02.388Z,68.27
2023-03-21T22:16:29.060Z,68.15
2023-03-21T22:18:55.728Z,68.48
2023-03-21T22:21:22.177Z,68.61
2023-03-21T22:23:48.784Z,68.66
2023-03-21T22:26:15.312Z,68.61
2023-03-21T22:28:43.328Z,68.51
2023-03-21T22:31:12.534Z,68.71
2023-03-21T22:33:39.002Z,68.66
2023-03-21T22:36:06.205Z,69.12
2023-03-21T22:38:34.531Z,69.12
2023-03-21T22:41:03.190Z,69.31
2023-03-21T22:43:30.355Z,69.71
2023-03-21T22:45:57.105Z,69.78
2023-03-21T22:48:23.733Z,69.88
2023-03-21T22:50:50.430Z,70.12
2023-03-21T22:53:16.984Z,70.40
2023-03-21T22:55:43.385Z,70.60
2023-03-21T22:58:09.800Z,70.52
2023-03-21T23:00:36.286Z,70.59
2023-03-21T23:03:03.095Z,70.49
2023-03-21T23:05:29.607Z,70.79
2023-03-21T23:07:56.105Z,71.01
2023-03-21T23:10:22.529Z,70.91
2023-03-21T23:12:49.293Z,70.83
2023-03-21T23:15:15.745Z,71.16
2023-03-21T23:17:44.134Z,70.98
2023-03-21T23:20:10.954Z,70.99
2023-03-21T23:22:37.772Z,71.14
2023-03-21T23:25:04.690Z,71.27
2023-03-21T23:27:31.358Z,71.48
2023-03-21T23:29:57.747Z,71.45
2023-03-21T23:32:24.396Z,71.72
2023-03-21T23:34:51.030Z,71.56
2023-03-21T23:37:17.617Z,71.67
2023-03-21T23:39:45.252Z,71.80
2023-03-21T23:42:12.108Z,71.75
2023-03-21T23:44:38.529Z,72.31
2023-03-21T23:47:05.608Z,72.35
2023-03-21T23:49:33.703Z,72.63
2023-03-21T23:52:00.333Z,72.38
2023-03-21T23:54:26.803Z,72.38
2023-03-21T23:56:53.224Z,72.39
2023-03-21T23:59:19.615Z,72.12
